Time;durP1;ratioP1;P1;durP2;ratioP2;P2;SDS_P1;SDS_P2;PMS_P1;PMS_P2;Temp;Humidity;BMP_temperature;BMP_pressure;BME280_temperature;BME280_humidity;BME280_pressure;Samples;Min_cycle;Max_cycle;Signal;HPM_P1;HPM_P2
2022/05/30 00:01:11;;;;;;;5.85;3.35;;;;;;;7.97;100.00;101379.09;5278074;28;20398;-71
2022/05/30 00:03:41;;;;;;;7.60;3.13;;;;;;;7.93;100.00;101385.72;5288756;28;20019;-69
2022/05/30 00:06:17;;;;;;;17.40;3.58;;;;;;;7.88;100.00;101384.41;5288509;28;20122;-69
2022/05/30 00:08:47;;;;;;;11.20;3.85;;;;;;;7.84;100.00;101386.53;5288538;28;20444;-69
2022/05/30 00:11:18;;;;;;;13.43;3.20;;;;;;;7.76;100.00;101389.84;5270483;28;20026;-68
2022/05/30 00:13:49;;;;;;;10.18;3.35;;;;;;;7.69;100.00;101377.19;5266721;28;20424;-68
2022/05/30 00:16:22;;;;;;;11.82;4.53;;;;;;;7.63;100.00;101383.91;5280572;28;20055;-69
2022/05/30 00:18:53;;;;;;;9.68;3.70;;;;;;;7.57;100.00;101379.09;5267169;28;20100;-70
2022/05/30 00:21:25;;;;;;;8.27;3.47;;;;;;;7.51;100.00;101380.47;5266987;28;20119;-69
2022/05/30 00:23:55;;;;;;;8.77;3.58;;;;;;;7.40;100.00;101380.56;5280715;28;20126;-69
2022/05/30 00:26:26;;;;;;;10.23;4.13;;;;;;;7.25;100.00;101374.72;5269453;28;20142;-69
2022/05/30 00:28:56;;;;;;;8.93;3.75;;;;;;;7.10;100.00;101375.19;5284719;28;20492;-69
2022/05/30 00:31:27;;;;;;;9.30;4.10;;;;;;;6.97;100.00;101378.88;5277453;28;20031;-69
2022/05/30 00:33:57;;;;;;;12.00;4.43;;;;;;;6.88;100.00;101374.34;5283680;28;20051;-70
2022/05/30 00:36:28;;;;;;;8.13;4.03;;;;;;;6.79;100.00;101363.63;5266500;28;20030;-69
2022/05/30 00:38:58;;;;;;;13.00;4.07;;;;;;;6.68;100.00;101367.19;5285469;28;20050;-69
2022/05/30 00:41:29;;;;;;;13.38;4.25;;;;;;;6.61;100.00;101371.31;5288171;28;20057;-69
2022/05/30 00:43:59;;;;;;;10.48;4.05;;;;;;;6.55;100.00;101372.69;5281169;28;20024;-69
2022/05/30 00:46:30;;;;;;;10.25;4.15;;;;;;;6.51;100.00;101367.72;5266664;28;20473;-69
2022/05/30 00:49:05;;;;;;;10.02;4.30;;;;;;;6.44;100.00;101372.72;5287441;28;20035;-68
2022/05/30 00:51:37;;;;;;;;;;;;;;;6.36;100.00;101364.50;5287893;28;20023;-68
2022/05/30 00:54:14;;;;;;;10.05;3.65;;;;;;;6.27;100.00;101360.78;5277804;28;20380;-71
2022/05/30 00:56:49;;;;;;;11.23;4.07;;;;;;;6.23;100.00;101360.19;5285000;28;20024;-69
2022/05/30 00:59:19;;;;;;;9.80;3.97;;;;;;;6.16;100.00;101360.81;5287398;28;20098;-70
2022/05/30 01:01:50;;;;;;;10.45;3.70;;;;;;;6.07;100.00;101356.22;5277076;27;20106;-69
2022/05/30 01:07:26;;;;;;;14.38;4.18;;;;;;;5.86;100.00;101364.09;5287583;28;20458;-69
2022/05/30 01:10:02;;;;;;;14.70;4.43;;;;;;;5.78;100.00;101362.06;5286985;28;20081;-69
2022/05/30 01:12:56;;;;;;;9.02;4.25;;;;;;;5.70;100.00;101361.81;5272743;28;20028;-69
2022/05/30 01:15:30;;;;;;;12.50;4.63;;;;;;;5.62;100.00;101356.25;5287436;28;20076;-69
2022/05/30 01:18:21;;;;;;;10.38;5.25;;;;;;;5.55;100.00;101360.38;5267805;28;20046;-69
2022/05/30 01:21:43;;;;;;;11.85;4.57;;;;;;;5.52;100.00;101363.28;5271647;28;20019;-68
2022/05/30 01:24:43;;;;;;;8.27;4.18;;;;;;;5.45;100.00;101362.91;5287030;28;20107;-68
2022/05/30 01:27:51;;;;;;;12.02;4.18;;;;;;;5.38;100.00;101362.56;5277641;28;20034;-68
2022/05/30 01:30:21;;;;;;;7.20;4.43;;;;;;;5.39;100.00;101353.59;5266269;28;20501;-68
2022/05/30 01:32:57;;;;;;;12.93;4.50;;;;;;;5.38;100.00;101349.25;5272539;28;20034;-68
2022/05/30 01:35:28;;;;;;;9.77;4.35;;;;;;;5.36;100.00;101353.00;5283434;28;20489;-68
2022/05/30 01:37:59;;;;;;;10.02;5.05;;;;;;;5.29;100.00;101349.97;5277400;28;20050;-71
2022/05/30 01:40:31;;;;;;;7.93;3.55;;;;;;;5.24;100.00;101344.16;5268182;28;20016;-69
2022/05/30 01:43:01;;;;;;;12.60;4.57;;;;;;;5.23;100.00;101338.97;5278413;28;20015;-69
2022/05/30 01:45:32;;;;;;;15.35;4.65;;;;;;;5.22;100.00;101338.13;5266733;28;20378;-69
2022/05/30 01:48:03;;;;;;;9.88;4.78;;;;;;;5.18;100.00;101336.66;5279449;28;20485;-69
2022/05/30 01:50:33;;;;;;;14.38;5.15;;;;;;;5.13;100.00;101331.69;5265977;28;20489;-70
2022/05/30 01:53:04;;;;;;;11.85;4.40;;;;;;;5.02;100.00;101328.16;5280686;28;20427;-69
2022/05/30 01:55:35;;;;;;;10.13;5.07;;;;;;;4.93;100.00;101327.94;5286864;28;20076;-71
2022/05/30 01:58:05;;;;;;;13.73;4.68;;;;;;;4.96;100.00;101331.31;5283902;28;20062;-69
2022/05/30 02:00:36;;;;;;;9.93;4.57;;;;;;;4.97;100.00;101323.22;5276298;28;20032;-70
2022/05/30 02:03:07;;;;;;;29.27;5.70;;;;;;;4.91;100.00;101329.84;5269836;28;20478;-70
2022/05/30 02:05:38;;;;;;;6.93;4.05;;;;;;;4.82;100.00;101322.59;5275028;28;20039;-70
2022/05/30 02:08:09;;;;;;;14.40;4.50;;;;;;;4.85;100.00;101317.03;5271251;28;20036;-70
2022/05/30 02:10:39;;;;;;;9.25;4.78;;;;;;;4.78;100.00;101315.81;5273298;28;20489;-69
2022/05/30 02:13:10;;;;;;;7.53;3.75;;;;;;;4.80;100.00;101326.31;5286667;28;20032;-69
2022/05/30 02:18:30;;;;;;;13.70;5.28;;;;;;;4.76;100.00;101325.69;5277044;28;20501;-69
2022/05/30 02:21:01;;;;;;;11.32;4.93;;;;;;;4.71;100.00;101330.50;5280989;28;20034;-69
2022/05/30 02:23:32;;;;;;;13.07;5.10;;;;;;;4.72;100.00;101331.34;5265753;28;20020;-70
2022/05/30 02:26:02;;;;;;;15.48;5.97;;;;;;;4.68;100.00;101330.78;5278627;28;20016;-69
2022/05/30 02:28:33;;;;;;;12.32;5.05;;;;;;;4.65;100.00;101329.19;5273133;28;20032;-69
2022/05/30 02:31:03;;;;;;;14.98;5.47;;;;;;;4.62;100.00;101320.59;5265735;28;20474;-70
2022/05/30 02:39:15;;;;;;;20.13;7.13;;;;;;;4.59;100.00;101326.16;5281731;28;20048;-69
2022/05/30 02:41:46;;;;;;;18.58;7.07;;;;;;;4.61;100.00;101330.38;5270405;28;20024;-69
2022/05/30 02:44:19;;;;;;;18.30;7.47;;;;;;;4.56;100.00;101324.56;5290255;28;20485;-69
2022/05/30 02:46:52;;;;;;;22.92;7.72;;;;;;;4.51;100.00;101320.53;5276482;28;20077;-69
2022/05/30 02:49:23;;;;;;;18.60;6.75;;;;;;;4.41;100.00;101331.00;5290335;28;20392;-70
2022/05/30 02:51:55;;;;;;;17.40;7.35;;;;;;;4.35;100.00;101337.63;5275863;28;20075;-70
2022/05/30 02:54:26;;;;;;;20.08;6.88;;;;;;;4.39;100.00;101332.94;5278403;28;20016;-70
2022/05/30 02:56:58;;;;;;;16.75;7.20;;;;;;;4.40;100.00;101335.47;5288095;28;20077;-70
2022/05/30 02:59:28;;;;;;;15.95;7.50;;;;;;;4.35;100.00;101334.13;5290073;28;20024;-69
2022/05/30 03:01:59;;;;;;;15.88;7.22;;;;;;;4.31;100.00;101330.84;5273431;28;20489;-68
2022/05/30 03:04:29;;;;;;;18.33;7.60;;;;;;;4.25;100.00;101338.44;5282873;28;20033;-69
2022/05/30 03:07:00;;;;;;;22.77;8.80;;;;;;;4.27;100.00;101337.38;5290258;28;20115;-69
2022/05/30 03:09:30;;;;;;;28.40;10.90;;;;;;;4.28;100.00;101341.72;5290431;28;20028;-69
2022/05/30 03:12:01;;;;;;;15.00;6.30;;;;;;;4.21;100.00;101343.13;5280568;28;20024;-70
2022/05/30 03:14:31;;;;;;;13.38;6.45;;;;;;;4.07;100.00;101340.66;5270991;28;20127;-68
2022/05/30 03:17:02;;;;;;;22.98;5.03;;;;;;;4.01;100.00;101341.91;5278167;28;20539;-69
2022/05/30 03:19:32;;;;;;;150.60;10.15;;;;;;;3.97;100.00;101343.13;5286362;28;20370;-69
2022/05/30 03:22:03;;;;;;;64.32;6.97;;;;;;;3.92;100.00;101344.44;5278316;28;20020;-69
2022/05/30 03:24:33;;;;;;;20.30;3.53;;;;;;;3.85;100.00;101334.22;5281710;28;20027;-70
2022/05/30 03:27:04;;;;;;;29.90;5.57;;;;;;;3.81;100.00;101348.69;5276449;28;20020;-69
2022/05/30 03:29:34;;;;;;;7.72;3.13;;;;;;;3.86;100.00;101340.38;5280605;27;20119;-69
2022/05/30 03:32:05;;;;;;;8.43;3.92;;;;;;;3.92;100.00;101334.66;5281977;28;20016;-68
2022/05/30 03:34:36;;;;;;;17.77;7.22;;;;;;;3.95;100.00;101347.69;5289085;28;20088;-69
2022/05/30 03:37:06;;;;;;;21.08;8.23;;;;;;;3.96;100.00;101348.53;5275655;28;20015;-69
2022/05/30 03:39:37;;;;;;;22.00;7.90;;;;;;;3.95;100.00;101344.19;5277673;27;20028;-69
2022/05/30 03:42:13;;;;;;;21.90;8.18;;;;;;;3.94;100.00;101340.69;5286560;28;20068;-69
2022/05/30 03:44:44;;;;;;;17.00;7.35;;;;;;;3.95;100.00;101346.84;5289022;28;20032;-68
2022/05/30 03:47:15;;;;;;;18.13;8.23;;;;;;;3.96;100.00;101356.50;5289162;28;20381;-69
2022/05/30 03:49:45;;;;;;;19.20;7.78;;;;;;;3.96;100.00;101345.88;5274906;28;20038;-70
2022/05/30 03:52:15;;;;;;;19.45;8.40;;;;;;;3.92;100.00;101347.09;5280266;28;20020;-69
2022/05/30 03:54:46;;;;;;;21.65;7.63;;;;;;;3.88;100.00;101355.25;5280800;28;20023;-70
2022/05/30 03:57:17;;;;;;;16.88;7.63;;;;;;;3.86;100.00;101357.16;5267851;28;20081;-69
2022/05/30 03:59:48;;;;;;;16.65;7.30;;;;;;;3.88;100.00;101359.72;5285540;28;20027;-68
2022/05/30 04:02:18;;;;;;;19.90;7.50;;;;;;;3.86;100.00;101357.16;5285823;28;20504;-69
2022/05/30 04:04:49;;;;;;;17.02;7.70;;;;;;;3.85;100.00;101357.28;5283682;28;20074;-69
2022/05/30 04:07:20;;;;;;;17.63;7.20;;;;;;;3.80;100.00;101351.44;5267294;28;20043;-68
2022/05/30 04:09:50;;;;;;;21.63;7.05;;;;;;;3.77;100.00;101360.50;5281151;28;20028;-69
2022/05/30 04:12:22;;;;;;;18.83;7.22;;;;;;;3.79;100.00;101361.22;5280837;28;20027;-68
2022/05/30 04:14:56;;;;;;;16.88;6.68;;;;;;;3.86;100.00;101351.84;5275127;28;20068;-68
2022/05/30 04:17:27;;;;;;;21.83;6.95;;;;;;;3.90;100.00;101358.63;5273561;28;20314;-68
2022/05/30 04:19:58;;;;;;;19.92;6.13;;;;;;;3.98;100.00;101358.09;5277721;28;20032;-68
2022/05/30 04:22:29;;;;;;;16.17;6.72;;;;;;;4.02;100.00;101351.59;5284502;28;20492;-68
2022/05/30 04:25:00;;;;;;;15.55;7.07;;;;;;;4.08;100.00;101345.84;5267068;28;20039;-69
2022/05/30 04:27:32;;;;;;;16.90;7.72;;;;;;;4.15;100.00;101351.53;5279021;28;20469;-70
2022/05/30 04:30:04;;;;;;;19.95;8.25;;;;;;;4.23;100.00;101349.19;5275595;28;20032;-69
2022/05/30 04:32:36;;;;;;;20.52;8.32;;;;;;;4.38;100.00;101361.34;5287090;28;20069;-69
2022/05/30 04:35:08;;;;;;;17.20;7.47;;;;;;;4.54;100.00;101355.72;5274039;28;20027;-68
2022/05/30 04:37:39;;;;;;;20.92;7.18;;;;;;;4.73;100.00;101351.69;5288073;28;20031;-68
2022/05/30 04:40:13;;;;;;;28.38;7.95;;;;;;;4.87;100.00;101349.69;5274019;28;20153;-68
2022/05/30 04:42:45;;;;;;;16.63;7.00;;;;;;;5.03;100.00;101354.66;5278557;27;20411;-67
2022/05/30 04:45:16;;;;;;;18.50;6.93;;;;;;;5.20;100.00;101356.00;5280373;28;20499;-68
2022/05/30 04:47:46;;;;;;;18.27;6.38;;;;;;;5.37;100.00;101352.03;5278296;28;20023;-68
2022/05/30 04:50:17;;;;;;;19.42;6.55;;;;;;;5.50;100.00;101351.91;5273876;28;20530;-68
2022/05/30 04:52:47;;;;;;;15.13;6.55;;;;;;;5.68;100.00;101359.28;5274819;28;20031;-68
2022/05/30 04:55:18;;;;;;;18.27;7.13;;;;;;;5.88;100.00;101356.84;5266524;28;20029;-68
2022/05/30 04:57:50;;;;;;;17.05;7.95;;;;;;;6.07;100.00;101361.56;5266595;28;20012;-68
2022/05/30 05:03:08;;;;;;;18.73;8.05;;;;;;;6.43;100.00;101358.56;5270090;28;20425;-68
2022/05/30 05:05:39;;;;;;;13.00;6.93;;;;;;;6.56;100.00;101350.38;5287148;28;20031;-69
2022/05/30 05:08:31;;;;;;;15.60;7.47;;;;;;;6.73;100.00;101351.66;5273870;28;20061;-69
2022/05/30 05:11:19;;;;;;;17.85;7.20;;;;;;;6.84;100.00;101358.72;5287298;28;20032;-71
2022/05/30 05:13:50;;;;;;;16.80;7.10;;;;;;;6.96;100.00;101357.69;5287100;28;20027;-71
2022/05/30 05:16:24;;;;;;;14.45;6.55;;;;;;;7.11;100.00;101363.53;5267663;28;20400;-68
2022/05/30 05:18:55;;;;;;;17.80;6.93;;;;;;;7.24;100.00;101361.50;5280084;28;20102;-69
2022/05/30 05:21:31;;;;;;;19.23;7.63;;;;;;;7.38;100.00;101354.97;5273881;28;20107;-69
2022/05/30 05:24:03;;;;;;;18.25;7.55;;;;;;;7.63;100.00;101359.88;5284972;28;20034;-69
2022/05/30 05:26:34;;;;;;;17.98;7.38;;;;;;;7.83;100.00;101358.13;5270230;28;20381;-69
2022/05/30 05:29:04;;;;;;;24.05;8.25;;;;;;;8.01;100.00;101369.81;5269036;28;20036;-68
2022/05/30 05:31:36;;;;;;;13.88;7.32;;;;;;;8.23;100.00;101373.25;5278077;28;20132;-69
2022/05/30 05:34:09;;;;;;;18.52;7.40;;;;;;;8.44;100.00;101374.03;5279182;28;20048;-70
2022/05/30 05:36:44;;;;;;;22.20;6.38;;;;;;;8.61;100.00;101380.50;5264601;28;20044;-69
2022/05/30 05:39:16;;;;;;;23.85;7.75;;;;;;;8.79;100.00;101376.13;5273939;28;20031;-69
2022/05/30 05:41:47;;;;;;;19.40;7.63;;;;;;;8.93;100.00;101382.03;5273515;28;20474;-69
2022/05/30 05:44:18;;;;;;;17.80;7.40;;;;;;;9.04;100.00;101380.06;5287333;28;20030;-69
2022/05/30 05:46:49;;;;;;;18.67;6.63;;;;;;;9.17;100.00;101378.91;5269946;28;20046;-69
2022/05/30 05:49:20;;;;;;;16.80;6.10;;;;;;;9.31;100.00;101381.97;5276724;28;20523;-69
2022/05/30 05:51:54;;;;;;;16.77;6.60;;;;;;;9.50;100.00;101382.91;5272865;28;20028;-69
2022/05/30 05:54:26;;;;;;;16.58;5.88;;;;;;;9.62;100.00;101383.56;5286984;28;20192;-69
2022/05/30 05:56:57;;;;;;;20.35;6.68;;;;;;;9.77;100.00;101379.41;5287309;28;20469;-70
2022/05/30 05:59:28;;;;;;;23.27;6.38;;;;;;;9.93;100.00;101376.06;5285892;28;20446;-69
2022/05/30 06:01:58;;;;;;;18.65;5.55;;;;;;;10.07;100.00;101379.09;5269092;28;20020;-69
2022/05/30 06:04:29;;;;;;;15.57;5.07;;;;;;;10.23;100.00;101374.91;5265465;28;20036;-69
2022/05/30 06:07:01;;;;;;;22.55;5.45;;;;;;;10.37;100.00;101380.63;5265860;28;20020;-68
2022/05/30 06:09:32;;;;;;;15.07;4.97;;;;;;;10.57;100.00;101392.06;5282939;28;20024;-68
2022/05/30 06:12:03;;;;;;;18.75;4.72;;;;;;;10.71;100.00;101388.00;5287878;28;20035;-68
2022/05/30 06:14:34;;;;;;;17.95;5.72;;;;;;;10.81;100.00;101387.94;5277137;28;20391;-68
2022/05/30 06:17:04;;;;;;;13.02;5.30;;;;;;;10.92;100.00;101386.84;5279207;28;20020;-68
2022/05/30 06:19:35;;;;;;;15.18;5.25;;;;;;;11.02;100.00;101390.28;5269984;28;20046;-68
2022/05/30 06:22:06;;;;;;;16.70;5.30;;;;;;;11.14;100.00;101387.19;5270064;28;20063;-68
2022/05/30 06:24:36;;;;;;;13.18;4.45;;;;;;;11.28;100.00;101390.28;5268981;28;20020;-68
2022/05/30 06:27:07;;;;;;;15.15;4.20;;;;;;;11.41;100.00;101385.34;5278029;28;20269;-68
2022/05/30 06:29:38;;;;;;;18.27;4.63;;;;;;;11.48;100.00;101378.34;5290651;27;20110;-68
2022/05/30 06:32:09;;;;;;;17.10;4.60;;;;;;;11.55;100.00;101382.09;5274474;28;20118;-68
2022/05/30 06:34:39;;;;;;;14.52;4.15;;;;;;;11.70;100.00;101384.16;5280163;28;20549;-68
2022/05/30 06:37:11;;;;;;;18.25;4.20;;;;;;;11.77;100.00;101380.69;5273287;28;20023;-68
2022/05/30 06:39:41;;;;;;;15.10;4.57;;;;;;;11.84;100.00;101384.41;5278702;28;20020;-68
2022/05/30 06:42:13;;;;;;;13.90;3.97;;;;;;;11.94;100.00;101378.91;5282953;28;20099;-68
2022/05/30 06:44:44;;;;;;;11.70;3.28;;;;;;;11.91;100.00;101388.16;5269308;28;20028;-68
2022/05/30 06:47:14;;;;;;;16.80;3.42;;;;;;;12.23;100.00;101378.50;5275957;28;20454;-68
2022/05/30 06:49:46;;;;;;;9.93;3.20;;;;;;;13.03;100.00;101389.53;5289780;28;20024;-68
2022/05/30 06:52:16;;;;;;;10.43;2.58;;;;;;;13.94;100.00;101394.56;5281811;28;20035;-68
2022/05/30 06:54:47;;;;;;;10.93;3.55;;;;;;;14.74;100.00;101386.22;5282290;28;20031;-68
2022/05/30 07:00:07;;;;;;;13.80;3.72;;;;;;;17.00;100.00;101390.13;5289688;28;20434;-68
2022/05/30 07:02:37;;;;;;;12.13;3.47;;;;;;;17.51;100.00;101386.31;5272800;28;20073;-69
2022/05/30 07:05:08;;;;;;;14.25;3.45;;;;;;;18.07;100.00;101388.94;5288633;28;20042;-69
2022/05/30 07:07:40;;;;;;;10.73;3.05;;;;;;;17.82;100.00;101391.34;5272616;28;20051;-69
2022/05/30 07:10:11;;;;;;;13.90;3.63;;;;;;;17.18;100.00;101397.78;5279973;28;20022;-69
2022/05/30 07:12:42;;;;;;;10.98;3.85;;;;;;;16.99;100.00;101376.75;5273597;28;20070;-69
2022/05/30 07:15:13;;;;;;;11.20;2.97;;;;;;;17.40;100.00;101376.03;5286979;28;20477;-69
2022/05/30 07:17:43;;;;;;;13.32;3.20;;;;;;;17.52;100.00;101382.56;5275149;28;20412;-69
2022/05/30 07:20:14;;;;;;;7.47;2.67;;;;;;;17.60;100.00;101385.13;5286882;28;20030;-69
2022/05/30 07:22:45;;;;;;;7.35;3.10;;;;;;;18.02;100.00;101378.72;5287785;28;20024;-69
2022/05/30 07:25:15;;;;;;;5.22;2.13;;;;;;;17.93;100.00;101381.81;5286179;28;20042;-69
2022/05/30 07:27:46;;;;;;;8.13;1.65;;;;;;;17.72;100.00;101385.41;5273528;28;20062;-69
2022/05/30 07:30:16;;;;;;;10.73;1.73;;;;;;;16.86;100.00;101382.91;5279888;28;20023;-69
2022/05/30 07:32:47;;;;;;;8.25;1.40;;;;;;;17.03;100.00;101378.06;5285660;28;20087;-70
2022/05/30 07:35:19;;;;;;;10.93;2.08;;;;;;;16.67;96.55;101386.25;5284494;28;20039;-69
2022/05/30 07:37:50;;;;;;;9.45;1.80;;;;;;;16.78;97.93;101385.75;5275805;28;20031;-69
2022/05/30 07:40:20;;;;;;;6.07;1.38;;;;;;;17.46;92.64;101383.38;5283086;28;20031;-69
2022/05/30 07:42:51;;;;;;;10.57;1.77;;;;;;;17.95;91.14;101380.56;5277152;28;20023;-69
2022/05/30 07:45:21;;;;;;;8.23;1.60;;;;;;;18.26;80.35;101384.63;5272899;27;20334;-69
2022/05/30 07:47:52;;;;;;;6.45;1.30;;;;;;;18.48;83.71;101375.31;5286816;28;20019;-69
2022/05/30 07:50:22;;;;;;;5.85;1.30;;;;;;;18.82;83.56;101377.06;5286054;27;20035;-69
2022/05/30 07:52:53;;;;;;;6.80;1.80;;;;;;;19.11;81.14;101372.25;5286982;28;20118;-69
2022/05/30 07:55:23;;;;;;;5.95;1.23;;;;;;;18.45;72.43;101377.59;5286342;28;20058;-69
2022/05/30 07:57:55;;;;;;;4.53;1.40;;;;;;;18.80;73.97;101371.00;5286731;27;20020;-69
2022/05/30 08:00:29;;;;;;;4.25;1.65;;;;;;;19.12;74.14;101379.38;5277732;28;20016;-69
2022/05/30 08:03:00;;;;;;;6.45;1.55;;;;;;;18.46;77.35;101374.66;5268192;28;20042;-69
2022/05/30 08:05:30;;;;;;;7.53;1.45;;;;;;;18.38;81.69;101372.16;5276343;28;20016;-69
2022/05/30 08:08:01;;;;;;;9.73;1.52;;;;;;;18.87;78.96;101377.25;5279344;28;20388;-69
2022/05/30 08:10:31;;;;;;;7.18;1.50;;;;;;;19.10;81.50;101376.88;5276719;28;20027;-69
2022/05/30 08:13:03;;;;;;;4.80;1.38;;;;;;;19.03;73.20;101378.75;5285955;27;20376;-69
2022/05/30 08:15:33;;;;;;;7.78;1.27;;;;;;;19.26;68.69;101369.31;5286211;28;20019;-69
2022/05/30 08:18:04;;;;;;;3.42;1.20;;;;;;;19.63;74.21;101374.13;5273286;28;20069;-69
2022/05/30 08:20:37;;;;;;;11.48;1.92;;;;;;;20.91;68.42;101374.09;5285938;27;20015;-69
2022/05/30 08:23:07;;;;;;;11.25;1.45;;;;;;;21.50;63.24;101371.09;5266003;28;20027;-69
2022/05/30 08:25:39;;;;;;;13.30;1.90;;;;;;;21.27;61.26;101369.81;5279304;28;20023;-69
2022/05/30 08:28:09;;;;;;;6.43;1.35;;;;;;;19.53;61.57;101370.09;5283594;28;20027;-69
2022/05/30 08:30:40;;;;;;;7.25;1.23;;;;;;;17.96;65.56;101381.38;5288164;27;20024;-69
2022/05/30 08:33:13;;;;;;;4.07;1.10;;;;;;;16.97;74.03;101384.25;5294716;27;20033;-70
2022/05/30 08:35:45;;;;;;;7.10;1.23;;;;;;;17.37;75.24;101381.84;5286466;27;20016;-69
2022/05/30 08:38:16;;;;;;;4.38;1.10;;;;;;;18.38;70.55;101391.16;5286266;28;20031;-69
2022/05/30 08:43:39;;;;;;;12.00;1.40;;;;;;;18.77;66.80;101381.44;5286423;28;20500;-69
2022/05/30 08:46:20;;;;;;;4.97;1.25;;;;;;;17.87;69.65;101380.72;5285732;28;20054;-69
2022/05/30 08:49:28;;;;;;;3.55;0.88;;;;;;;17.20;71.07;101382.16;5286496;28;20498;-69
2022/05/30 08:52:36;;;;;;;6.07;1.67;;;;;;;16.79;73.08;101384.72;5285597;28;20543;-69
2022/05/30 08:55:43;;;;;;;8.15;1.45;;;;;;;16.20;76.53;101379.47;5285576;28;20023;-69
2022/05/30 08:58:29;;;;;;;6.10;1.50;;;;;;;15.86;76.23;101383.63;5268298;28;20035;-69
2022/05/30 09:01:08;;;;;;;8.27;1.38;;;;;;;15.80;82.70;101381.66;5263859;28;20027;-69
2022/05/30 09:03:42;;;;;;;5.38;1.42;;;;;;;15.65;78.67;101389.78;5272699;28;20023;-69
2022/05/30 09:06:32;;;;;;;5.20;1.35;;;;;;;15.48;79.55;101385.56;5284687;28;20035;-68
2022/05/30 09:09:13;;;;;;;9.52;1.55;;;;;;;15.29;79.83;101387.75;5285282;28;20026;-69
2022/05/30 09:11:49;;;;;;;2.80;1.20;;;;;;;15.19;85.97;101387.19;5272327;28;20051;-69
2022/05/30 09:14:35;;;;;;;7.03;1.73;;;;;;;15.28;77.38;101388.78;5281541;28;20040;-69
2022/05/30 09:17:13;;;;;;;3.55;0.90;;;;;;;15.64;79.45;101388.09;5264565;28;20036;-69
2022/05/30 09:19:43;;;;;;;5.57;1.30;;;;;;;16.21;80.59;101390.09;5276764;28;20397;-69
2022/05/30 09:22:16;;;;;;;2.92;1.08;;;;;;;16.73;85.33;101394.47;5277620;28;20055;-69
2022/05/30 09:25:55;;;;;;;4.32;1.10;;;;;;;17.19;83.00;101395.91;5271307;28;20169;-69
2022/05/30 09:27:37;;;;;;;9.77;1.63;;;;;;;17.50;77.58;101396.34;5270051;28;20513;-69
2022/05/30 09:30:12;;;;;;;7.30;1.25;;;;;;;17.31;80.08;101389.72;5284124;28;20110;-69
2022/05/30 09:32:57;;;;;;;4.95;1.42;;;;;;;17.01;77.11;101393.66;5284732;28;20023;-69
2022/05/30 09:35:32;;;;;;;5.60;1.50;;;;;;;17.13;80.36;101392.09;5284315;28;20027;-69
2022/05/30 09:38:22;;;;;;;5.17;1.47;;;;;;;17.09;91.16;101390.81;5284595;28;20073;-69
2022/05/30 09:40:56;;;;;;;6.03;1.40;;;;;;;17.19;79.34;101388.59;5284336;28;20378;-69
2022/05/30 09:43:38;;;;;;;5.78;1.80;;;;;;;17.63;71.27;101390.16;5284283;28;20080;-69
2022/05/30 09:46:22;;;;;;;7.90;1.65;;;;;;;18.03;74.44;101391.25;5284342;28;20027;-69
2022/05/30 09:49:30;;;;;;;5.65;1.58;;;;;;;17.92;69.99;101390.97;5288923;28;20199;-69
2022/05/30 09:52:02;;;;;;;4.80;1.88;;;;;;;17.53;68.76;101385.09;5288988;28;20050;-69
2022/05/30 09:54:37;;;;;;;5.15;1.50;;;;;;;17.26;70.72;101381.34;5288566;28;20020;-68
2022/05/30 09:57:17;;;;;;;4.60;1.58;;;;;;;16.68;73.81;101387.91;5288582;28;20380;-69
2022/05/30 09:59:52;;;;;;;4.30;1.40;;;;;;;16.69;76.77;101387.72;5288727;28;20034;-69
2022/05/30 10:02:25;;;;;;;5.47;1.90;;;;;;;16.63;82.90;101391.19;5283990;28;20015;-69
2022/05/30 10:05:00;;;;;;;4.00;1.48;;;;;;;16.56;76.37;101393.81;5288384;28;20035;-69
2022/05/30 10:07:33;;;;;;;4.57;1.35;;;;;;;16.60;72.11;101388.88;5288114;28;20034;-69
2022/05/30 10:10:20;;;;;;;5.18;1.70;;;;;;;16.91;69.00;101393.97;5288180;28;20020;-69
2022/05/30 10:13:09;;;;;;;6.22;1.65;;;;;;;16.76;66.24;101388.63;5274901;27;20023;-68
2022/05/30 10:15:42;;;;;;;5.38;1.70;;;;;;;16.45;72.85;101396.19;5287992;27;20446;-69
2022/05/30 10:18:13;;;;;;;7.35;1.95;;;;;;;16.29;71.73;101395.41;5288089;27;20020;-69
2022/05/30 10:21:22;;;;;;;4.97;1.65;;;;;;;16.46;70.82;101395.16;5287947;28;20075;-69
2022/05/30 10:30:59;;;;;;;5.45;2.13;;;;;;;16.77;74.28;101401.19;5281033;28;20481;-68
2022/05/30 10:33:54;;;;;;;7.07;1.92;;;;;;;16.69;69.40;101393.13;5284778;28;20136;-68
2022/05/30 10:36:39;;;;;;;4.95;1.60;;;;;;;16.44;72.81;101402.66;5278084;28;20051;-68
2022/05/30 10:39:28;;;;;;;4.05;1.48;;;;;;;16.28;72.05;101392.91;5274208;28;20219;-69
2022/05/30 10:42:18;;;;;;;7.03;1.67;;;;;;;16.26;84.09;101398.47;5287918;28;20026;-69
2022/05/30 10:44:55;;;;;;;3.15;1.20;;;;;;;17.26;71.09;101389.47;5287154;28;20477;-69
2022/05/30 10:47:40;;;;;;;4.57;1.75;;;;;;;17.48;65.93;101403.00;5287742;28;20108;-68
2022/05/30 10:50:42;;;;;;;11.07;1.75;;;;;;;17.39;66.37;101398.78;5287275;28;20024;-68
2022/05/30 10:53:22;;;;;;;6.43;1.95;;;;;;;17.62;67.51;101393.94;5283177;28;20040;-68
2022/05/30 10:55:57;;;;;;;3.65;1.83;;;;;;;17.82;66.88;101403.06;5279356;28;20034;-69
2022/05/30 10:58:34;;;;;;;5.60;2.10;;;;;;;17.95;68.76;101402.28;5287510;28;20210;-69
2022/05/30 11:01:12;;;;;;;8.93;2.50;;;;;;;18.02;66.89;101405.88;5284843;28;20038;-69
2022/05/30 11:03:50;;;;;;;5.03;2.13;;;;;;;17.73;69.09;101403.41;5287983;28;20354;-69
2022/05/30 11:06:27;;;;;;;5.82;1.92;;;;;;;17.77;66.03;101397.38;5287963;28;20054;-69
2022/05/30 11:09:03;;;;;;;6.47;1.77;;;;;;;17.65;64.88;101396.22;5288344;28;20035;-69
2022/05/30 11:12:08;;;;;;;5.88;2.10;;;;;;;17.78;71.87;101392.78;5274157;28;20516;-69
2022/05/30 11:15:14;;;;;;;7.18;1.67;;;;;;;17.77;64.90;101399.25;5287578;28;20020;-69
2022/05/30 11:18:07;;;;;;;3.97;1.73;;;;;;;17.70;62.62;101384.78;5274017;28;20031;-69
2022/05/30 11:20:44;;;;;;;4.50;1.63;;;;;;;17.67;64.12;101394.16;5287846;28;20032;-69
2022/05/30 11:23:14;;;;;;;4.97;1.60;;;;;;;17.76;62.27;101390.25;5288892;28;20028;-69
2022/05/30 11:26:14;;;;;;;4.30;1.83;;;;;;;18.06;64.87;101393.53;5285910;28;20096;-69
2022/05/30 11:29:15;;;;;;;3.30;2.00;;;;;;;18.46;60.78;101395.56;5282623;28;20023;-69
2022/05/30 11:31:46;;;;;;;5.30;1.90;;;;;;;19.08;68.00;101398.00;5287987;28;20156;-69
2022/05/30 11:34:36;;;;;;;4.47;1.63;;;;;;;19.38;61.62;101392.13;5285549;28;20041;-69
2022/05/30 11:37:15;;;;;;;4.15;1.60;;;;;;;20.11;56.56;101394.69;5275412;27;20384;-69
2022/05/30 11:40:04;;;;;;;4.00;1.88;;;;;;;20.08;56.88;101389.66;5276924;28;20017;-69
2022/05/30 11:42:36;;;;;;;5.53;1.55;;;;;;;20.16;54.93;101386.69;5268295;28;20020;-69
2022/05/30 11:45:29;;;;;;;4.75;1.80;;;;;;;19.72;52.38;101388.31;5267808;28;20063;-70
2022/05/30 11:48:25;;;;;;;5.22;1.77;;;;;;;18.88;55.96;101400.72;5268235;28;20024;-69
2022/05/30 11:51:14;;;;;;;3.10;1.63;;;;;;;17.95;60.16;101393.28;5278285;28;20028;-69
2022/05/30 11:54:22;;;;;;;8.10;2.25;;;;;;;17.65;61.94;101393.50;5274893;28;20110;-69
2022/05/30 11:57:27;;;;;;;4.55;1.95;;;;;;;17.58;62.09;101384.50;5275200;28;20032;-69
2022/05/30 12:00:32;;;;;;;3.90;1.70;;;;;;;17.05;62.51;101390.38;5288839;28;20244;-69
2022/05/30 12:03:32;;;;;;;3.13;1.80;;;;;;;16.64;68.45;101379.31;5284486;28;20024;-69
2022/05/30 12:06:32;;;;;;;4.25;1.80;;;;;;;16.95;65.36;101375.47;5287298;28;20045;-69
2022/05/30 12:09:37;;;;;;;4.72;1.98;;;;;;;17.12;65.20;101384.16;5280043;28;20058;-69
2022/05/30 12:12:27;;;;;;;6.35;1.90;;;;;;;16.97;61.53;101376.97;5278677;28;20023;-69
2022/05/30 12:15:24;;;;;;;6.60;2.10;;;;;;;16.90;68.99;101380.63;5274933;28;20024;-69
2022/05/30 12:24:14;;;;;;;8.13;2.03;;;;;;;16.37;67.36;101372.81;5284296;28;20036;-69
2022/05/30 12:27:01;;;;;;;9.07;1.90;;;;;;;16.34;69.56;101375.06;5272829;28;20026;-69
2022/05/30 12:29:51;;;;;;;5.88;1.60;;;;;;;16.12;68.09;101380.44;5279982;28;20028;-69
2022/05/30 12:32:23;;;;;;;5.30;1.80;;;;;;;16.35;65.27;101377.56;5284958;28;20107;-69